sensor_id;sensor_type;location;lat;lon;timestamp;P1;durP1;ratioP1;P2;durP2;ratioP2
38302;SDS011;24103;42.454;27.400;2023-04-24T00:00:36;0.30;;;0.30;;
38302;SDS011;24103;42.454;27.400;2023-04-24T00:03:06;0.30;;;0.30;;
38302;SDS011;24103;42.454;27.400;2023-04-24T00:05:32;0.30;;;0.30;;
38302;SDS011;24103;42.454;27.400;2023-04-24T00:07:57;0.25;;;0.25;;
38302;SDS011;24103;42.454;27.400;2023-04-24T00:10:23;0.30;;;0.30;;
38302;SDS011;24103;42.454;27.400;2023-04-24T00:12:48;0.20;;;0.20;;
38302;SDS011;24103;42.454;27.400;2023-04-24T00:15:15;0.35;;;0.35;;
38302;SDS011;24103;42.454;27.400;2023-04-24T00:17:40;0.40;;;0.40;;
38302;SDS011;24103;42.454;27.400;2023-04-24T00:20:06;0.25;;;0.25;;
38302;SDS011;24103;42.454;27.400;2023-04-24T00:22:32;0.20;;;0.20;;
38302;SDS011;24103;42.454;27.400;2023-04-24T00:24:57;0.30;;;0.30;;
38302;SDS011;24103;42.454;27.400;2023-04-24T00:27:23;0.30;;;0.30;;
38302;SDS011;24103;42.454;27.400;2023-04-24T00:29:48;0.32;;;0.32;;
38302;SDS011;24103;42.454;27.400;2023-04-24T00:32:14;0.30;;;0.30;;
38302;SDS011;24103;42.454;27.400;2023-04-24T00:34:40;0.30;;;0.30;;
38302;SDS011;24103;42.454;27.400;2023-04-24T00:37:06;0.25;;;0.25;;
38302;SDS011;24103;42.454;27.400;2023-04-24T00:39:32;0.20;;;0.20;;
38302;SDS011;24103;42.454;27.400;2023-04-24T00:41:57;0.30;;;0.30;;
38302;SDS011;24103;42.454;27.400;2023-04-24T00:44:23;0.25;;;0.25;;
38302;SDS011;24103;42.454;27.400;2023-04-24T00:46:49;0.30;;;0.30;;
38302;SDS011;24103;42.454;27.400;2023-04-24T00:49:19;0.20;;;0.20;;
38302;SDS011;24103;42.454;27.400;2023-04-24T00:51:45;0.20;;;0.20;;
38302;SDS011;24103;42.454;27.400;2023-04-24T00:54:11;0.17;;;0.17;;
38302;SDS011;24103;42.454;27.400;2023-04-24T00:56:40;0.30;;;0.30;;
38302;SDS011;24103;42.454;27.400;2023-04-24T00:59:07;0.30;;;0.30;;
38302;SDS011;24103;42.454;27.400;2023-04-24T01:01:33;0.30;;;0.30;;
38302;SDS011;24103;42.454;27.400;2023-04-24T01:03:59;0.30;;;0.30;;
38302;SDS011;24103;42.454;27.400;2023-04-24T01:06:27;0.30;;;0.30;;
38302;SDS011;24103;42.454;27.400;2023-04-24T01:08:53;0.30;;;0.30;;
38302;SDS011;24103;42.454;27.400;2023-04-24T01:11:20;0.20;;;0.20;;
38302;SDS011;24103;42.454;27.400;2023-04-24T01:13:47;0.32;;;0.32;;
38302;SDS011;24103;42.454;27.400;2023-04-24T01:16:16;0.22;;;0.22;;
38302;SDS011;24103;42.454;27.400;2023-04-24T01:18:42;0.30;;;0.30;;
38302;SDS011;24103;42.454;27.400;2023-04-24T01:21:08;0.30;;;0.30;;
38302;SDS011;24103;42.454;27.400;2023-04-24T01:23:37;0.30;;;0.30;;
38302;SDS011;24103;42.454;27.400;2023-04-24T01:26:02;0.30;;;0.30;;
38302;SDS011;24103;42.454;27.400;2023-04-24T01:28:28;0.30;;;0.30;;
38302;SDS011;24103;42.454;27.400;2023-04-24T01:30:53;0.30;;;0.30;;
38302;SDS011;24103;42.454;27.400;2023-04-24T01:33:20;0.30;;;0.30;;
38302;SDS011;24103;42.454;27.400;2023-04-24T01:35:46;0.40;;;0.40;;
38302;SDS011;24103;42.454;27.400;2023-04-24T01:38:13;0.28;;;0.28;;
38302;SDS011;24103;42.454;27.400;2023-04-24T01:40:38;0.35;;;0.35;;
38302;SDS011;24103;42.454;27.400;2023-04-24T01:43:04;0.30;;;0.30;;
38302;SDS011;24103;42.454;27.400;2023-04-24T01:45:30;0.30;;;0.30;;
38302;SDS011;24103;42.454;27.400;2023-04-24T01:47:55;0.35;;;0.35;;
38302;SDS011;24103;42.454;27.400;2023-04-24T01:50:22;0.30;;;0.30;;
38302;SDS011;24103;42.454;27.400;2023-04-24T01:52:47;0.30;;;0.30;;
38302;SDS011;24103;42.454;27.400;2023-04-24T01:55:13;0.30;;;0.30;;
38302;SDS011;24103;42.454;27.400;2023-04-24T01:57:38;0.30;;;0.30;;
38302;SDS011;24103;42.454;27.400;2023-04-24T02:00:05;0.38;;;0.38;;
38302;SDS011;24103;42.454;27.400;2023-04-24T02:02:32;0.30;;;0.30;;
38302;SDS011;24103;42.454;27.400;2023-04-24T02:04:57;0.20;;;0.20;;
38302;SDS011;24103;42.454;27.400;2023-04-24T02:07:23;0.20;;;0.20;;
38302;SDS011;24103;42.454;27.400;2023-04-24T02:09:49;0.30;;;0.30;;
38302;SDS011;24103;42.454;27.400;2023-04-24T02:12:14;0.40;;;0.40;;
38302;SDS011;24103;42.454;27.400;2023-04-24T02:14:40;0.30;;;0.30;;
38302;SDS011;24103;42.454;27.400;2023-04-24T02:17:07;0.30;;;0.30;;
38302;SDS011;24103;42.454;27.400;2023-04-24T02:19:32;0.30;;;0.30;;
38302;SDS011;24103;42.454;27.400;2023-04-24T02:21:58;0.30;;;0.30;;
38302;SDS011;24103;42.454;27.400;2023-04-24T02:24:23;0.20;;;0.20;;
38302;SDS011;24103;42.454;27.400;2023-04-24T02:26:49;0.40;;;0.40;;
38302;SDS011;24103;42.454;27.400;2023-04-24T02:29:14;0.32;;;0.32;;
38302;SDS011;24103;42.454;27.400;2023-04-24T02:31:40;0.30;;;0.30;;
38302;SDS011;24103;42.454;27.400;2023-04-24T02:34:05;0.30;;;0.30;;
38302;SDS011;24103;42.454;27.400;2023-04-24T02:36:31;0.40;;;0.40;;
38302;SDS011;24103;42.454;27.400;2023-04-24T02:38:56;0.40;;;0.40;;
38302;SDS011;24103;42.454;27.400;2023-04-24T02:41:22;0.22;;;0.22;;
38302;SDS011;24103;42.454;27.400;2023-04-24T02:43:47;0.30;;;0.30;;
38302;SDS011;24103;42.454;27.400;2023-04-24T02:46:13;0.30;;;0.30;;
38302;SDS011;24103;42.454;27.400;2023-04-24T02:48:38;0.30;;;0.30;;
38302;SDS011;24103;42.454;27.400;2023-04-24T02:51:04;0.40;;;0.40;;
38302;SDS011;24103;42.454;27.400;2023-04-24T02:53:29;0.30;;;0.30;;
38302;SDS011;24103;42.454;27.400;2023-04-24T02:55:55;0.30;;;0.30;;
38302;SDS011;24103;42.454;27.400;2023-04-24T02:58:21;0.40;;;0.40;;
38302;SDS011;24103;42.454;27.400;2023-04-24T03:00:47;0.30;;;0.30;;
38302;SDS011;24103;42.454;27.400;2023-04-24T03:03:12;0.30;;;0.30;;
38302;SDS011;24103;42.454;27.400;2023-04-24T03:05:38;0.30;;;0.30;;
38302;SDS011;24103;42.454;27.400;2023-04-24T03:08:03;0.40;;;0.40;;
38302;SDS011;24103;42.454;27.400;2023-04-24T03:10:29;0.40;;;0.40;;
38302;SDS011;24103;42.454;27.400;2023-04-24T03:12:55;0.30;;;0.30;;
38302;SDS011;24103;42.454;27.400;2023-04-24T03:15:21;0.30;;;0.30;;
38302;SDS011;24103;42.454;27.400;2023-04-24T03:17:47;0.40;;;0.40;;
38302;SDS011;24103;42.454;27.400;2023-04-24T03:20:13;0.35;;;0.35;;
38302;SDS011;24103;42.454;27.400;2023-04-24T03:22:38;0.30;;;0.30;;
38302;SDS011;24103;42.454;27.400;2023-04-24T03:25:04;0.30;;;0.30;;
38302;SDS011;24103;42.454;27.400;2023-04-24T03:27:30;0.30;;;0.30;;
38302;SDS011;24103;42.454;27.400;2023-04-24T03:29:55;0.30;;;0.30;;
38302;SDS011;24103;42.454;27.400;2023-04-24T03:32:21;0.30;;;0.30;;
38302;SDS011;24103;42.454;27.400;2023-04-24T03:34:47;0.30;;;0.30;;
38302;SDS011;24103;42.454;27.400;2023-04-24T03:37:13;0.30;;;0.30;;
38302;SDS011;24103;42.454;27.400;2023-04-24T03:39:39;0.28;;;0.28;;
38302;SDS011;24103;42.454;27.400;2023-04-24T03:42:05;0.30;;;0.30;;
38302;SDS011;24103;42.454;27.400;2023-04-24T03:44:30;0.40;;;0.40;;
38302;SDS011;24103;42.454;27.400;2023-04-24T03:46:57;0.32;;;0.32;;
38302;SDS011;24103;42.454;27.400;2023-04-24T03:49:23;0.25;;;0.25;;
38302;SDS011;24103;42.454;27.400;2023-04-24T03:51:48;0.30;;;0.30;;
38302;SDS011;24103;42.454;27.400;2023-04-24T03:54:14;0.30;;;0.30;;
38302;SDS011;24103;42.454;27.400;2023-04-24T03:56:39;0.20;;;0.20;;
38302;SDS011;24103;42.454;27.400;2023-04-24T03:59:05;0.30;;;0.30;;
38302;SDS011;24103;42.454;27.400;2023-04-24T04:01:30;0.20;;;0.20;;
38302;SDS011;24103;42.454;27.400;2023-04-24T04:03:56;0.22;;;0.22;;
38302;SDS011;24103;42.454;27.400;2023-04-24T04:06:21;0.20;;;0.20;;
38302;SDS011;24103;42.454;27.400;2023-04-24T04:08:47;0.10;;;0.10;;
38302;SDS011;24103;42.454;27.400;2023-04-24T04:11:12;0.10;;;0.10;;
38302;SDS011;24103;42.454;27.400;2023-04-24T04:13:38;0.10;;;0.10;;
38302;SDS011;24103;42.454;27.400;2023-04-24T04:16:03;0.10;;;0.10;;
38302;SDS011;24103;42.454;27.400;2023-04-24T04:18:29;0.10;;;0.10;;
38302;SDS011;24103;42.454;27.400;2023-04-24T04:20:54;0.10;;;0.10;;
38302;SDS011;24103;42.454;27.400;2023-04-24T04:23:21;0.00;;;0.00;;
38302;SDS011;24103;42.454;27.400;2023-04-24T04:25:47;0.10;;;0.10;;
38302;SDS011;24103;42.454;27.400;2023-04-24T04:28:13;0.10;;;0.10;;
38302;SDS011;24103;42.454;27.400;2023-04-24T04:30:38;0.10;;;0.10;;
38302;SDS011;24103;42.454;27.400;2023-04-24T04:33:05;0.10;;;0.10;;
38302;SDS011;24103;42.454;27.400;2023-04-24T04:35:30;0.10;;;0.10;;
38302;SDS011;24103;42.454;27.400;2023-04-24T04:37:56;0.20;;;0.20;;
38302;SDS011;24103;42.454;27.400;2023-04-24T04:40:23;0.10;;;0.10;;
38302;SDS011;24103;42.454;27.400;2023-04-24T04:42:49;0.10;;;0.10;;
38302;SDS011;24103;42.454;27.400;2023-04-24T04:45:18;0.10;;;0.10;;
38302;SDS011;24103;42.454;27.400;2023-04-24T04:47:43;0.10;;;0.10;;
38302;SDS011;24103;42.454;27.400;2023-04-24T04:50:09;0.10;;;0.10;;
38302;SDS011;24103;42.454;27.400;2023-04-24T04:52:35;0.10;;;0.10;;
38302;SDS011;24103;42.454;27.400;2023-04-24T04:55:01;0.10;;;0.10;;
38302;SDS011;24103;42.454;27.400;2023-04-24T04:57:26;0.00;;;0.00;;
38302;SDS011;24103;42.454;27.400;2023-04-24T04:59:52;0.00;;;0.00;;
38302;SDS011;24103;42.454;27.400;2023-04-24T05:02:18;0.00;;;0.00;;
38302;SDS011;24103;42.454;27.400;2023-04-24T05:04:43;0.00;;;0.00;;
38302;SDS011;24103;42.454;27.400;2023-04-24T05:07:10;0.05;;;0.05;;
38302;SDS011;24103;42.454;27.400;2023-04-24T05:09:35;0.10;;;0.10;;
38302;SDS011;24103;42.454;27.400;2023-04-24T05:12:01;0.08;;;0.08;;
38302;SDS011;24103;42.454;27.400;2023-04-24T05:14:27;0.10;;;0.10;;
38302;SDS011;24103;42.454;27.400;2023-04-24T05:16:52;0.10;;;0.10;;
38302;SDS011;24103;42.454;27.400;2023-04-24T05:19:18;0.10;;;0.10;;
38302;SDS011;24103;42.454;27.400;2023-04-24T05:21:43;0.10;;;0.10;;
38302;SDS011;24103;42.454;27.400;2023-04-24T05:24:09;0.10;;;0.10;;
38302;SDS011;24103;42.454;27.400;2023-04-24T05:26:34;0.10;;;0.10;;
38302;SDS011;24103;42.454;27.400;2023-04-24T05:29:00;0.00;;;0.00;;
38302;SDS011;24103;42.454;27.400;2023-04-24T05:31:26;0.03;;;0.03;;
38302;SDS011;24103;42.454;27.400;2023-04-24T05:33:51;0.00;;;0.00;;
38302;SDS011;24103;42.454;27.400;2023-04-24T05:36:17;0.00;;;0.00;;
38302;SDS011;24103;42.454;27.400;2023-04-24T05:38:42;0.10;;;0.10;;
38302;SDS011;24103;42.454;27.400;2023-04-24T05:41:08;0.00;;;0.00;;
38302;SDS011;24103;42.454;27.400;2023-04-24T05:43:33;0.05;;;0.00;;
38302;SDS011;24103;42.454;27.400;2023-04-24T05:45:59;0.03;;;0.03;;
38302;SDS011;24103;42.454;27.400;2023-04-24T05:48:24;0.00;;;0.00;;
38302;SDS011;24103;42.454;27.400;2023-04-24T05:50:50;0.00;;;0.00;;
38302;SDS011;24103;42.454;27.400;2023-04-24T05:53:17;0.00;;;0.00;;
38302;SDS011;24103;42.454;27.400;2023-04-24T05:55:43;0.00;;;0.00;;
38302;SDS011;24103;42.454;27.400;2023-04-24T05:58:08;0.00;;;0.00;;
38302;SDS011;24103;42.454;27.400;2023-04-24T06:00:34;0.00;;;0.00;;
38302;SDS011;24103;42.454;27.400;2023-04-24T06:03:00;0.00;;;0.00;;
38302;SDS011;24103;42.454;27.400;2023-04-24T06:05:28;0.00;;;0.00;;
38302;SDS011;24103;42.454;27.400;2023-04-24T06:07:55;0.00;;;0.00;;
38302;SDS011;24103;42.454;27.400;2023-04-24T06:10:21;0.00;;;0.00;;
38302;SDS011;24103;42.454;27.400;2023-04-24T06:12:46;0.00;;;0.00;;
38302;SDS011;24103;42.454;27.400;2023-04-24T06:15:12;0.10;;;0.10;;
38302;SDS011;24103;42.454;27.400;2023-04-24T06:17:38;0.00;;;0.00;;
38302;SDS011;24103;42.454;27.400;2023-04-24T06:20:03;0.00;;;0.00;;
38302;SDS011;24103;42.454;27.400;2023-04-24T06:22:31;0.00;;;0.00;;
38302;SDS011;24103;42.454;27.400;2023-04-24T06:24:56;0.00;;;0.00;;
38302;SDS011;24103;42.454;27.400;2023-04-24T06:27:22;0.00;;;0.00;;
38302;SDS011;24103;42.454;27.400;2023-04-24T06:29:47;0.00;;;0.00;;
38302;SDS011;24103;42.454;27.400;2023-04-24T06:32:19;0.00;;;0.00;;
38302;SDS011;24103;42.454;27.400;2023-04-24T06:34:46;0.00;;;0.00;;
38302;SDS011;24103;42.454;27.400;2023-04-24T06:37:12;0.10;;;0.05;;
38302;SDS011;24103;42.454;27.400;2023-04-24T06:39:39;0.00;;;0.00;;
38302;SDS011;24103;42.454;27.400;2023-04-24T06:42:04;0.00;;;0.00;;
38302;SDS011;24103;42.454;27.400;2023-04-24T06:44:30;0.00;;;0.00;;
38302;SDS011;24103;42.454;27.400;2023-04-24T06:46:55;0.00;;;0.00;;
38302;SDS011;24103;42.454;27.400;2023-04-24T06:49:21;0.00;;;0.00;;
38302;SDS011;24103;42.454;27.400;2023-04-24T06:51:46;0.00;;;0.00;;
38302;SDS011;24103;42.454;27.400;2023-04-24T06:54:12;0.00;;;0.00;;
38302;SDS011;24103;42.454;27.400;2023-04-24T06:56:37;0.10;;;0.10;;
38302;SDS011;24103;42.454;27.400;2023-04-24T06:59:03;0.00;;;0.00;;
38302;SDS011;24103;42.454;27.400;2023-04-24T07:01:28;0.00;;;0.00;;
38302;SDS011;24103;42.454;27.400;2023-04-24T07:03:54;0.00;;;0.00;;
38302;SDS011;24103;42.454;27.400;2023-04-24T07:06:20;0.00;;;0.00;;
38302;SDS011;24103;42.454;27.400;2023-04-24T07:08:47;0.10;;;0.10;;
38302;SDS011;24103;42.454;27.400;2023-04-24T07:11:14;0.08;;;0.08;;
38302;SDS011;24103;42.454;27.400;2023-04-24T07:13:39;0.00;;;0.00;;
38302;SDS011;24103;42.454;27.400;2023-04-24T07:16:07;0.15;;;0.13;;
38302;SDS011;24103;42.454;27.400;2023-04-24T07:18:33;0.10;;;0.10;;
38302;SDS011;24103;42.454;27.400;2023-04-24T07:20:58;0.00;;;0.00;;
38302;SDS011;24103;42.454;27.400;2023-04-24T07:23:24;0.00;;;0.00;;
38302;SDS011;24103;42.454;27.400;2023-04-24T07:26:08;0.00;;;0.00;;
38302;SDS011;24103;42.454;27.400;2023-04-24T07:28:33;0.00;;;0.00;;
38302;SDS011;24103;42.454;27.400;2023-04-24T07:30:58;0.00;;;0.00;;
38302;SDS011;24103;42.454;27.400;2023-04-24T07:33:25;0.00;;;0.00;;
38302;SDS011;24103;42.454;27.400;2023-04-24T07:35:51;0.03;;;0.03;;
38302;SDS011;24103;42.454;27.400;2023-04-24T07:38:18;0.00;;;0.00;;
38302;SDS011;24103;42.454;27.400;2023-04-24T07:40:47;0.10;;;0.05;;
38302;SDS011;24103;42.454;27.400;2023-04-24T07:43:14;0.00;;;0.00;;
38302;SDS011;24103;42.454;27.400;2023-04-24T07:45:43;0.00;;;0.00;;
38302;SDS011;24103;42.454;27.400;2023-04-24T07:48:09;0.00;;;0.00;;
38302;SDS011;24103;42.454;27.400;2023-04-24T07:50:35;0.10;;;0.10;;
38302;SDS011;24103;42.454;27.400;2023-04-24T07:53:01;0.00;;;0.00;;
38302;SDS011;24103;42.454;27.400;2023-04-24T07:55:27;0.57;;;0.00;;
38302;SDS011;24103;42.454;27.400;2023-04-24T07:57:52;0.00;;;0.00;;
38302;SDS011;24103;42.454;27.400;2023-04-24T08:00:18;0.00;;;0.00;;
38302;SDS011;24103;42.454;27.400;2023-04-24T08:02:45;0.00;;;0.00;;
38302;SDS011;24103;42.454;27.400;2023-04-24T08:05:10;0.00;;;0.00;;
38302;SDS011;24103;42.454;27.400;2023-04-24T08:07:36;0.10;;;0.10;;
38302;SDS011;24103;42.454;27.400;2023-04-24T08:10:02;0.10;;;0.05;;
38302;SDS011;24103;42.454;27.400;2023-04-24T08:12:28;0.10;;;0.10;;
38302;SDS011;24103;42.454;27.400;2023-04-24T08:14:54;0.08;;;0.08;;
38302;SDS011;24103;42.454;27.400;2023-04-24T08:17:19;0.30;;;0.30;;
38302;SDS011;24103;42.454;27.400;2023-04-24T08:19:45;0.20;;;0.20;;
38302;SDS011;24103;42.454;27.400;2023-04-24T08:22:15;0.17;;;0.13;;
38302;SDS011;24103;42.454;27.400;2023-04-24T08:24:41;0.10;;;0.10;;
38302;SDS011;24103;42.454;27.400;2023-04-24T08:27:07;0.10;;;0.10;;
38302;SDS011;24103;42.454;27.400;2023-04-24T08:29:33;0.10;;;0.10;;
38302;SDS011;24103;42.454;27.400;2023-04-24T08:31:59;0.10;;;0.10;;
38302;SDS011;24103;42.454;27.400;2023-04-24T08:34:26;0.10;;;0.10;;
38302;SDS011;24103;42.454;27.400;2023-04-24T08:36:52;0.10;;;0.10;;
38302;SDS011;24103;42.454;27.400;2023-04-24T08:39:17;0.15;;;0.15;;
38302;SDS011;24103;42.454;27.400;2023-04-24T08:41:43;0.10;;;0.10;;
38302;SDS011;24103;42.454;27.400;2023-04-24T08:44:10;0.30;;;0.30;;
38302;SDS011;24103;42.454;27.400;2023-04-24T08:46:37;0.28;;;0.28;;
38302;SDS011;24103;42.454;27.400;2023-04-24T08:49:04;0.15;;;0.15;;
38302;SDS011;24103;42.454;27.400;2023-04-24T08:51:30;0.20;;;0.20;;
38302;SDS011;24103;42.454;27.400;2023-04-24T08:53:56;0.10;;;0.10;;
38302;SDS011;24103;42.454;27.400;2023-04-24T08:56:22;0.20;;;0.20;;
38302;SDS011;24103;42.454;27.400;2023-04-24T08:58:50;0.20;;;0.20;;
38302;SDS011;24103;42.454;27.400;2023-04-24T09:01:16;0.20;;;0.20;;
38302;SDS011;24103;42.454;27.400;2023-04-24T09:03:44;0.10;;;0.10;;
38302;SDS011;24103;42.454;27.400;2023-04-24T09:06:14;0.10;;;0.10;;
38302;SDS011;24103;42.454;27.400;2023-04-24T09:08:42;0.20;;;0.20;;
38302;SDS011;24103;42.454;27.400;2023-04-24T09:11:10;0.10;;;0.10;;
38302;SDS011;24103;42.454;27.400;2023-04-24T09:13:37;0.17;;;0.17;;
38302;SDS011;24103;42.454;27.400;2023-04-24T09:16:03;0.13;;;0.13;;
38302;SDS011;24103;42.454;27.400;2023-04-24T09:18:29;0.15;;;0.10;;
38302;SDS011;24103;42.454;27.400;2023-04-24T09:23:29;0.17;;;0.17;;
38302;SDS011;24103;42.454;27.400;2023-04-24T09:25:56;0.20;;;0.20;;
38302;SDS011;24103;42.454;27.400;2023-04-24T09:28:29;0.10;;;0.10;;
38302;SDS011;24103;42.454;27.400;2023-04-24T09:31:05;0.10;;;0.10;;
38302;SDS011;24103;42.454;27.400;2023-04-24T09:33:31;0.10;;;0.10;;
38302;SDS011;24103;42.454;27.400;2023-04-24T09:35:56;0.32;;;0.20;;
38302;SDS011;24103;42.454;27.400;2023-04-24T09:38:37;0.10;;;0.10;;
38302;SDS011;24103;42.454;27.400;2023-04-24T09:41:07;0.10;;;0.10;;
38302;SDS011;24103;42.454;27.400;2023-04-24T09:43:34;0.10;;;0.10;;
38302;SDS011;24103;42.454;27.400;2023-04-24T09:46:04;0.20;;;0.20;;
38302;SDS011;24103;42.454;27.400;2023-04-24T09:48:33;0.10;;;0.10;;
38302;SDS011;24103;42.454;27.400;2023-04-24T09:51:04;0.10;;;0.10;;
38302;SDS011;24103;42.454;27.400;2023-04-24T09:53:32;0.10;;;0.10;;
38302;SDS011;24103;42.454;27.400;2023-04-24T09:56:10;0.10;;;0.10;;
38302;SDS011;24103;42.454;27.400;2023-04-24T09:58:37;0.10;;;0.10;;
38302;SDS011;24103;42.454;27.400;2023-04-24T10:01:03;0.10;;;0.10;;
38302;SDS011;24103;42.454;27.400;2023-04-24T10:03:32;0.10;;;0.10;;
38302;SDS011;24103;42.454;27.400;2023-04-24T10:05:59;0.10;;;0.10;;
38302;SDS011;24103;42.454;27.400;2023-04-24T10:08:34;0.15;;;0.15;;
38302;SDS011;24103;42.454;27.400;2023-04-24T10:11:02;0.00;;;0.00;;
38302;SDS011;24103;42.454;27.400;2023-04-24T10:13:28;0.13;;;0.13;;
38302;SDS011;24103;42.454;27.400;2023-04-24T10:15:54;0.10;;;0.10;;
38302;SDS011;24103;42.454;27.400;2023-04-24T10:18:21;0.00;;;0.00;;
38302;SDS011;24103;42.454;27.400;2023-04-24T10:20:47;0.13;;;0.13;;
38302;SDS011;24103;42.454;27.400;2023-04-24T10:23:12;0.10;;;0.10;;
38302;SDS011;24103;42.454;27.400;2023-04-24T10:25:38;0.10;;;0.10;;
38302;SDS011;24103;42.454;27.400;2023-04-24T10:28:04;0.20;;;0.20;;
38302;SDS011;24103;42.454;27.400;2023-04-24T10:30:31;0.10;;;0.10;;
38302;SDS011;24103;42.454;27.400;2023-04-24T10:33:01;0.10;;;0.10;;
38302;SDS011;24103;42.454;27.400;2023-04-24T10:35:30;0.05;;;0.05;;
38302;SDS011;24103;42.454;27.400;2023-04-24T10:38:01;0.03;;;0.03;;
38302;SDS011;24103;42.454;27.400;2023-04-24T10:40:34;0.10;;;0.10;;
38302;SDS011;24103;42.454;27.400;2023-04-24T10:43:04;0.10;;;0.10;;
38302;SDS011;24103;42.454;27.400;2023-04-24T10:45:33;0.10;;;0.10;;
38302;SDS011;24103;42.454;27.400;2023-04-24T10:48:02;0.00;;;0.00;;
38302;SDS011;24103;42.454;27.400;2023-04-24T10:50:29;0.08;;;0.08;;
38302;SDS011;24103;42.454;27.400;2023-04-24T10:53:07;0.10;;;0.10;;
38302;SDS011;24103;42.454;27.400;2023-04-24T10:55:43;0.10;;;0.10;;
38302;SDS011;24103;42.454;27.400;2023-04-24T10:58:13;0.10;;;0.10;;
38302;SDS011;24103;42.454;27.400;2023-04-24T11:00:41;0.10;;;0.10;;
38302;SDS011;24103;42.454;27.400;2023-04-24T11:03:22;0.20;;;0.10;;
38302;SDS011;24103;42.454;27.400;2023-04-24T11:06:07;0.10;;;0.10;;
38302;SDS011;24103;42.454;27.400;2023-04-24T11:08:38;0.00;;;0.00;;
38302;SDS011;24103;42.454;27.400;2023-04-24T11:11:17;0.10;;;0.10;;
38302;SDS011;24103;42.454;27.400;2023-04-24T11:16:21;0.10;;;0.10;;
38302;SDS011;24103;42.454;27.400;2023-04-24T11:19:09;0.00;;;0.00;;
38302;SDS011;24103;42.454;27.400;2023-04-24T11:21:42;0.10;;;0.10;;
38302;SDS011;24103;42.454;27.400;2023-04-24T11:27:12;0.10;;;0.10;;
38302;SDS011;24103;42.454;27.400;2023-04-24T11:34:48;0.00;;;0.00;;
38302;SDS011;24103;42.454;27.400;2023-04-24T11:37:15;0.00;;;0.00;;
38302;SDS011;24103;42.454;27.400;2023-04-24T11:39:41;0.00;;;0.00;;
38302;SDS011;24103;42.454;27.400;2023-04-24T11:42:07;0.10;;;0.10;;
38302;SDS011;24103;42.454;27.400;2023-04-24T11:44:34;0.20;;;0.20;;
38302;SDS011;24103;42.454;27.400;2023-04-24T11:47:04;0.10;;;0.10;;
38302;SDS011;24103;42.454;27.400;2023-04-24T11:49:30;0.00;;;0.00;;
38302;SDS011;24103;42.454;27.400;2023-04-24T11:51:56;0.08;;;0.08;;
38302;SDS011;24103;42.454;27.400;2023-04-24T11:54:21;0.20;;;0.10;;
38302;SDS011;24103;42.454;27.400;2023-04-24T11:56:47;0.52;;;0.20;;
38302;SDS011;24103;42.454;27.400;2023-04-24T11:59:13;0.10;;;0.10;;
38302;SDS011;24103;42.454;27.400;2023-04-24T12:01:43;0.10;;;0.10;;
38302;SDS011;24103;42.454;27.400;2023-04-24T12:04:10;0.10;;;0.10;;
38302;SDS011;24103;42.454;27.400;2023-04-24T12:06:36;0.05;;;0.05;;
38302;SDS011;24103;42.454;27.400;2023-04-24T12:09:02;0.10;;;0.10;;
38302;SDS011;24103;42.454;27.400;2023-04-24T12:11:27;0.00;;;0.00;;
38302;SDS011;24103;42.454;27.400;2023-04-24T12:13:53;0.00;;;0.00;;
38302;SDS011;24103;42.454;27.400;2023-04-24T12:16:19;0.10;;;0.10;;
38302;SDS011;24103;42.454;27.400;2023-04-24T12:18:44;0.10;;;0.10;;
38302;SDS011;24103;42.454;27.400;2023-04-24T12:21:20;0.10;;;0.10;;
38302;SDS011;24103;42.454;27.400;2023-04-24T12:23:47;0.20;;;0.20;;
38302;SDS011;24103;42.454;27.400;2023-04-24T12:26:17;0.00;;;0.00;;
38302;SDS011;24103;42.454;27.400;2023-04-24T12:28:45;0.10;;;0.10;;
38302;SDS011;24103;42.454;27.400;2023-04-24T12:31:14;0.10;;;0.10;;
38302;SDS011;24103;42.454;27.400;2023-04-24T12:33:40;0.20;;;0.20;;
38302;SDS011;24103;42.454;27.400;2023-04-24T12:36:06;0.10;;;0.10;;
38302;SDS011;24103;42.454;27.400;2023-04-24T12:38:35;0.10;;;0.10;;
38302;SDS011;24103;42.454;27.400;2023-04-24T12:41:06;0.10;;;0.10;;
38302;SDS011;24103;42.454;27.400;2023-04-24T12:43:36;0.10;;;0.10;;
38302;SDS011;24103;42.454;27.400;2023-04-24T12:46:02;0.10;;;0.10;;
38302;SDS011;24103;42.454;27.400;2023-04-24T12:48:28;0.10;;;0.10;;
38302;SDS011;24103;42.454;27.400;2023-04-24T12:50:54;0.20;;;0.20;;
38302;SDS011;24103;42.454;27.400;2023-04-24T12:53:21;0.08;;;0.08;;
38302;SDS011;24103;42.454;27.400;2023-04-24T12:55:47;0.10;;;0.10;;
38302;SDS011;24103;42.454;27.400;2023-04-24T12:58:18;0.10;;;0.10;;
38302;SDS011;24103;42.454;27.400;2023-04-24T13:00:45;0.03;;;0.03;;
38302;SDS011;24103;42.454;27.400;2023-04-24T13:03:11;0.10;;;0.10;;
38302;SDS011;24103;42.454;27.400;2023-04-24T13:05:37;0.10;;;0.10;;
38302;SDS011;24103;42.454;27.400;2023-04-24T13:08:02;0.10;;;0.10;;
38302;SDS011;24103;42.454;27.400;2023-04-24T13:10:28;0.00;;;0.00;;
38302;SDS011;24103;42.454;27.400;2023-04-24T13:12:53;0.10;;;0.10;;
38302;SDS011;24103;42.454;27.400;2023-04-24T13:15:19;0.00;;;0.00;;
38302;SDS011;24103;42.454;27.400;2023-04-24T13:17:45;0.00;;;0.00;;
38302;SDS011;24103;42.454;27.400;2023-04-24T13:20:10;0.10;;;0.10;;
38302;SDS011;24103;42.454;27.400;2023-04-24T13:22:36;0.10;;;0.10;;
38302;SDS011;24103;42.454;27.400;2023-04-24T13:25:02;0.10;;;0.10;;
38302;SDS011;24103;42.454;27.400;2023-04-24T13:27:27;0.10;;;0.10;;
38302;SDS011;24103;42.454;27.400;2023-04-24T13:29:53;0.10;;;0.10;;
38302;SDS011;24103;42.454;27.400;2023-04-24T13:32:18;0.10;;;0.10;;
38302;SDS011;24103;42.454;27.400;2023-04-24T13:34:44;0.10;;;0.10;;
38302;SDS011;24103;42.454;27.400;2023-04-24T13:37:10;0.05;;;0.05;;
38302;SDS011;24103;42.454;27.400;2023-04-24T13:39:35;0.10;;;0.10;;
38302;SDS011;24103;42.454;27.400;2023-04-24T13:42:01;0.10;;;0.10;;
38302;SDS011;24103;42.454;27.400;2023-04-24T13:44:27;0.10;;;0.10;;
38302;SDS011;24103;42.454;27.400;2023-04-24T13:46:53;0.00;;;0.00;;
38302;SDS011;24103;42.454;27.400;2023-04-24T13:49:22;0.10;;;0.10;;
38302;SDS011;24103;42.454;27.400;2023-04-24T13:51:49;0.10;;;0.10;;
38302;SDS011;24103;42.454;27.400;2023-04-24T13:54:15;0.10;;;0.10;;
38302;SDS011;24103;42.454;27.400;2023-04-24T13:56:41;0.10;;;0.10;;
38302;SDS011;24103;42.454;27.400;2023-04-24T13:59:06;0.00;;;0.00;;
38302;SDS011;24103;42.454;27.400;2023-04-24T14:01:33;0.10;;;0.10;;
38302;SDS011;24103;42.454;27.400;2023-04-24T14:03:58;0.20;;;0.20;;
38302;SDS011;24103;42.454;27.400;2023-04-24T14:06:24;0.13;;;0.10;;
38302;SDS011;24103;42.454;27.400;2023-04-24T14:08:50;0.00;;;0.00;;
38302;SDS011;24103;42.454;27.400;2023-04-24T14:11:17;0.10;;;0.10;;
38302;SDS011;24103;42.454;27.400;2023-04-24T14:13:43;0.08;;;0.08;;
38302;SDS011;24103;42.454;27.400;2023-04-24T14:16:09;0.17;;;0.17;;
38302;SDS011;24103;42.454;27.400;2023-04-24T14:18:35;0.10;;;0.10;;
38302;SDS011;24103;42.454;27.400;2023-04-24T14:21:01;0.08;;;0.08;;
38302;SDS011;24103;42.454;27.400;2023-04-24T14:23:29;0.10;;;0.10;;
38302;SDS011;24103;42.454;27.400;2023-04-24T14:25:55;0.10;;;0.10;;
38302;SDS011;24103;42.454;27.400;2023-04-24T14:28:22;0.10;;;0.10;;
38302;SDS011;24103;42.454;27.400;2023-04-24T14:30:47;0.10;;;0.10;;
38302;SDS011;24103;42.454;27.400;2023-04-24T14:33:13;0.20;;;0.20;;
38302;SDS011;24103;42.454;27.400;2023-04-24T14:35:42;0.17;;;0.17;;
38302;SDS011;24103;42.454;27.400;2023-04-24T14:38:08;0.10;;;0.10;;
38302;SDS011;24103;42.454;27.400;2023-04-24T14:40:33;0.10;;;0.10;;
38302;SDS011;24103;42.454;27.400;2023-04-24T14:42:59;0.10;;;0.10;;